createdAt,value
2023-04-02T00:02:18.030Z,99.9
2023-04-02T00:05:05.861Z,99.9
2023-04-02T00:07:53.487Z,99.9
2023-04-02T00:10:41.244Z,99.9
2023-04-02T00:13:28.829Z,99.9
2023-04-02T00:16:16.663Z,99.9
2023-04-02T00:19:04.504Z,99.9
2023-04-02T00:21:52.440Z,99.9
2023-04-02T00:24:40.253Z,99.9
2023-04-02T00:27:27.973Z,99.9
2023-04-02T00:30:15.651Z,99.9
2023-04-02T00:33:03.496Z,99.9
2023-04-02T00:35:51.316Z,99.9
2023-04-02T00:38:39.049Z,99.9
2023-04-02T00:41:26.860Z,99.9
2023-04-02T00:44:14.874Z,99.9
2023-04-02T00:47:02.583Z,99.9
2023-04-02T00:49:50.491Z,99.9
2023-04-02T00:52:38.277Z,99.9
2023-04-02T00:55:26.160Z,99.9
2023-04-02T00:58:13.843Z,99.9
2023-04-02T01:01:01.924Z,99.9
2023-04-02T01:03:50.010Z,99.9
2023-04-02T01:06:37.819Z,99.9
2023-04-02T01:09:25.764Z,99.9
2023-04-02T01:12:13.584Z,99.9
2023-04-02T01:15:01.382Z,99.9
2023-04-02T01:17:49.520Z,99.9
2023-04-02T01:20:37.326Z,99.9
2023-04-02T01:23:25.321Z,99.9
2023-04-02T01:26:13.183Z,99.9
2023-04-02T01:29:01.200Z,99.9
2023-04-02T01:31:49.220Z,99.9
2023-04-02T01:34:37.114Z,99.9
2023-04-02T01:37:24.902Z,99.9
2023-04-02T01:40:12.732Z,99.9
2023-04-02T01:43:00.601Z,99.9
2023-04-02T01:45:48.457Z,99.9
2023-04-02T01:48:36.293Z,99.9
2023-04-02T01:51:24.177Z,99.9
2023-04-02T01:54:11.951Z,99.9
2023-04-02T01:56:59.805Z,99.9
2023-04-02T01:59:47.798Z,99.9
2023-04-02T02:02:36.188Z,99.9
2023-04-02T02:05:24.162Z,99.9
2023-04-02T02:08:12.049Z,99.9
2023-04-02T02:10:59.835Z,99.9
2023-04-02T02:13:47.816Z,99.9
2023-04-02T02:16:35.701Z,99.9
2023-04-02T02:19:23.618Z,99.9
2023-04-02T02:22:11.272Z,99.9
2023-04-02T02:24:59.078Z,99.9
2023-04-02T02:27:46.842Z,99.9
2023-04-02T02:30:34.775Z,99.9
2023-04-02T02:33:22.841Z,99.9
2023-04-02T02:36:10.729Z,99.9
2023-04-02T02:38:58.430Z,99.9
2023-04-02T02:41:46.368Z,99.9
2023-04-02T02:44:33.945Z,99.9
2023-04-02T02:47:22.003Z,99.9
2023-04-02T02:50:09.997Z,99.9
2023-04-02T02:52:57.835Z,99.9
2023-04-02T02:55:45.637Z,99.9
2023-04-02T02:58:33.288Z,99.9
2023-04-02T03:01:21.154Z,99.9
2023-04-02T03:04:09.769Z,99.9
2023-04-02T03:06:57.613Z,99.9
2023-04-02T03:09:45.496Z,99.9
2023-04-02T03:12:33.363Z,99.9
2023-04-02T03:15:21.352Z,99.9
2023-04-02T03:18:09.233Z,99.9
2023-04-02T03:20:57.167Z,99.9
2023-04-02T03:23:46.732Z,99.9
2023-04-02T03:26:34.710Z,99.9
2023-04-02T03:29:22.519Z,99.9
2023-04-02T03:32:10.612Z,99.9
2023-04-02T03:34:58.495Z,99.9
2023-04-02T03:37:46.410Z,99.9
2023-04-02T03:40:34.343Z,99.9
2023-04-02T03:43:22.306Z,99.9
2023-04-02T03:46:10.157Z,99.9
2023-04-02T03:48:57.943Z,99.9
2023-04-02T03:51:45.911Z,99.9
2023-04-02T03:54:34.409Z,99.9
2023-04-02T03:57:22.320Z,99.9
2023-04-02T04:00:10.149Z,99.9
2023-04-02T04:02:58.197Z,99.9
2023-04-02T04:05:46.052Z,99.9
2023-04-02T04:08:34.062Z,99.9
2023-04-02T04:11:21.996Z,99.9
2023-04-02T04:14:09.955Z,99.9
2023-04-02T04:16:58.045Z,99.9
2023-04-02T04:19:45.993Z,99.9
2023-04-02T04:22:33.767Z,99.9
2023-04-02T04:25:21.731Z,99.9
2023-04-02T04:28:09.711Z,99.9
2023-04-02T04:30:57.553Z,99.9
2023-04-02T04:33:45.582Z,99.9
2023-04-02T04:36:33.402Z,99.9
2023-04-02T04:39:21.201Z,99.9
2023-04-02T04:42:09.023Z,99.9
2023-04-02T04:44:56.854Z,99.9
2023-04-02T04:47:44.968Z,99.9
2023-04-02T04:50:32.880Z,99.9
2023-04-02T04:53:20.629Z,99.9
2023-04-02T04:56:19.859Z,99.9
2023-04-02T04:59:07.854Z,99.9
2023-04-02T05:01:55.902Z,99.9
2023-04-02T05:04:44.085Z,99.9
2023-04-02T05:07:31.927Z,99.9
2023-04-02T05:10:19.805Z,99.9
2023-04-02T05:13:07.535Z,99.9
2023-04-02T05:15:55.590Z,99.9
2023-04-02T05:18:43.560Z,99.9
2023-04-02T05:21:31.490Z,99.9
2023-04-02T05:24:19.348Z,99.9
2023-04-02T05:27:07.322Z,99.9
2023-04-02T05:29:55.105Z,99.9
2023-04-02T05:32:43.045Z,99.9
2023-04-02T05:35:30.972Z,99.9
2023-04-02T05:38:19.040Z,99.9
2023-04-02T05:41:06.895Z,99.9
2023-04-02T05:43:54.838Z,99.9
2023-04-02T05:46:42.891Z,99.9
2023-04-02T05:49:30.886Z,99.9
2023-04-02T05:52:18.727Z,99.9
2023-04-02T05:55:06.814Z,99.9
2023-04-02T05:58:36.491Z,99.9
2023-04-02T06:01:24.597Z,99.9
2023-04-02T06:04:12.670Z,99.9
2023-04-02T06:07:00.678Z,99.9
2023-04-02T06:09:48.363Z,99.9
2023-04-02T06:12:36.463Z,99.9
2023-04-02T06:15:24.287Z,99.9
2023-04-02T06:18:12.211Z,99.9
2023-04-02T06:21:00.124Z,99.9
2023-04-02T06:23:47.949Z,99.9
2023-04-02T06:26:35.764Z,99.9
2023-04-02T06:29:23.883Z,99.9
2023-04-02T06:32:11.669Z,99.9
2023-04-02T06:34:59.598Z,99.9
2023-04-02T06:37:47.513Z,99.9
2023-04-02T06:40:35.402Z,99.9
2023-04-02T06:43:23.341Z,99.9
2023-04-02T06:46:11.571Z,99.9
2023-04-02T06:48:59.464Z,99.9
2023-04-02T06:51:47.402Z,99.9
2023-04-02T06:54:35.150Z,99.9
2023-04-02T06:57:23.438Z,99.9
2023-04-02T07:00:11.312Z,99.9
2023-04-02T07:02:59.507Z,99.9
2023-04-02T07:05:47.409Z,99.9
2023-04-02T07:08:35.379Z,99.9
2023-04-02T07:11:23.260Z,99.9
2023-04-02T07:14:11.401Z,99.9
2023-04-02T07:16:59.335Z,99.9
2023-04-02T07:19:47.398Z,99.9
2023-04-02T07:22:35.377Z,99.9
2023-04-02T07:25:23.506Z,99.9
2023-04-02T07:28:11.390Z,99.9
2023-04-02T07:30:59.397Z,99.9
2023-04-02T07:33:47.249Z,99.9
2023-04-02T07:36:35.537Z,99.9
2023-04-02T07:39:23.541Z,99.9
2023-04-02T07:42:11.445Z,99.9
2023-04-02T07:44:59.312Z,99.9
2023-04-02T07:47:47.383Z,99.9
2023-04-02T07:50:35.348Z,99.9
2023-04-02T07:53:23.456Z,99.9
2023-04-02T07:56:11.318Z,99.9
2023-04-02T07:58:59.406Z,99.9
2023-04-02T08:01:47.349Z,99.9
2023-04-02T08:04:35.338Z,99.9
2023-04-02T08:07:23.209Z,99.9
2023-04-02T08:10:11.386Z,99.7
2023-04-02T08:12:59.242Z,99.7
2023-04-02T08:15:47.264Z,99.5
2023-04-02T08:18:35.218Z,99.5
2023-04-02T08:21:23.104Z,99.4
2023-04-02T08:24:11.195Z,98.7
2023-04-02T08:26:59.207Z,98.3
2023-04-02T08:29:46.977Z,98.8
2023-04-02T08:32:34.896Z,98.8
2023-04-02T08:35:22.840Z,98.9
2023-04-02T08:38:10.882Z,98.9
2023-04-02T08:40:58.764Z,98.3
2023-04-02T08:43:46.880Z,98.4
2023-04-02T08:46:34.921Z,98.1
2023-04-02T08:49:23.142Z,98.4
2023-04-02T08:52:10.975Z,98.3
2023-04-02T08:54:58.954Z,97.8
2023-04-02T08:57:46.895Z,97.1
2023-04-02T09:00:37.916Z,96.7
2023-04-02T09:03:26.098Z,96.8
2023-04-02T09:06:16.881Z,96.7
2023-04-02T09:09:04.781Z,96.3
2023-04-02T09:11:52.830Z,95.8
2023-04-02T09:14:40.859Z,95
2023-04-02T09:17:37.143Z,95.3
2023-04-02T09:20:30.712Z,95
2023-04-02T09:23:18.713Z,95
2023-04-02T09:26:06.891Z,94.6
2023-04-02T09:28:54.917Z,94.7
2023-04-02T09:31:43.000Z,94.6
2023-04-02T09:34:31.188Z,93.8
2023-04-02T09:37:19.150Z,94.2
2023-04-02T09:40:07.117Z,93.3
2023-04-02T09:42:54.999Z,93.3
2023-04-02T09:45:42.961Z,93.5
2023-04-02T09:48:31.052Z,92.9
2023-04-02T09:51:19.165Z,93.3
2023-04-02T09:54:09.492Z,93.2
2023-04-02T09:56:57.584Z,93.4
2023-04-02T09:59:45.456Z,92.9
2023-04-02T10:02:33.450Z,92.9
2023-04-02T10:05:40.889Z,92.3
2023-04-02T10:08:29.675Z,92.7
2023-04-02T10:11:17.550Z,92.8
2023-04-02T10:14:05.382Z,92.4
2023-04-02T10:16:55.462Z,91.6
2023-04-02T10:19:43.468Z,90.6
2023-04-02T10:22:31.323Z,91.4
2023-04-02T10:25:19.331Z,91.4
2023-04-02T10:28:07.095Z,92.5
2023-04-02T10:30:55.262Z,91
2023-04-02T10:33:43.124Z,90.3
2023-04-02T10:36:31.155Z,90.5
2023-04-02T10:39:19.017Z,90
2023-04-02T10:42:07.076Z,90
2023-04-02T10:44:55.020Z,90.2
2023-04-02T10:47:43.079Z,89.9
2023-04-02T10:50:31.008Z,90.1
2023-04-02T10:53:18.981Z,89.8
2023-04-02T10:56:06.883Z,89.5
2023-04-02T10:58:57.671Z,89.2
2023-04-02T11:01:45.736Z,88.9
2023-04-02T11:04:33.669Z,88.6
2023-04-02T11:07:35.717Z,89.4
2023-04-02T11:10:23.692Z,88.8
2023-04-02T11:13:11.589Z,89.4
2023-04-02T11:15:59.675Z,89
2023-04-02T11:18:47.612Z,88.3
2023-04-02T11:21:47.928Z,88.5
2023-04-02T11:24:42.696Z,88.2
2023-04-02T11:27:30.705Z,88.2
2023-04-02T11:30:18.660Z,88
2023-04-02T11:33:06.680Z,88.8
2023-04-02T11:35:54.692Z,88.8
2023-04-02T11:38:42.680Z,88.2
2023-04-02T11:41:30.524Z,87.5
2023-04-02T11:44:18.448Z,88
2023-04-02T11:47:06.335Z,88.2
2023-04-02T11:49:54.732Z,87.2
2023-04-02T11:52:42.875Z,87.5
2023-04-02T11:55:30.919Z,88.4
2023-04-02T11:58:18.692Z,87.5
2023-04-02T12:01:06.783Z,86
2023-04-02T12:03:54.628Z,85.1
2023-04-02T12:06:42.728Z,85.4
2023-04-02T12:09:30.592Z,86.2
2023-04-02T12:12:20.336Z,86.2
2023-04-02T12:15:08.180Z,85.2
2023-04-02T12:17:56.258Z,84.7
2023-04-02T12:20:44.089Z,85.2
2023-04-02T12:23:32.111Z,85.4
2023-04-02T12:26:22.990Z,85
2023-04-02T12:29:11.085Z,84.5
2023-04-02T12:31:58.998Z,84.4
2023-04-02T12:34:46.860Z,84.1
2023-04-02T12:37:34.721Z,83
2023-04-02T12:40:22.644Z,83.1
2023-04-02T12:43:10.543Z,82.7
2023-04-02T12:45:58.634Z,82.8
2023-04-02T12:48:46.424Z,83.8
2023-04-02T12:51:34.195Z,83.2
2023-04-02T12:54:22.079Z,82.5
2023-04-02T12:57:10.189Z,83.6
2023-04-02T12:59:57.955Z,82.7
2023-04-02T13:02:45.990Z,81.9
2023-04-02T13:05:33.930Z,82.8
2023-04-02T13:08:21.816Z,82.7
2023-04-02T13:11:09.699Z,82.5
2023-04-02T13:13:57.715Z,81.5
2023-04-02T13:16:45.736Z,81.8
2023-04-02T13:19:33.678Z,81.9
2023-04-02T13:22:21.454Z,81.5
2023-04-02T13:25:09.436Z,81.7
2023-04-02T13:27:57.219Z,82.3
2023-04-02T13:30:45.097Z,82.5
2023-04-02T13:33:33.143Z,81.8
2023-04-02T13:36:21.132Z,81
2023-04-02T13:39:08.921Z,81.5
2023-04-02T13:41:56.752Z,79.5
2023-04-02T13:44:44.584Z,79.3
2023-04-02T13:47:32.603Z,78.9
2023-04-02T13:50:20.554Z,78.8
2023-04-02T13:53:10.772Z,78.7
2023-04-02T13:55:58.635Z,79.7
2023-04-02T13:58:46.415Z,79.8
2023-04-02T14:01:34.628Z,80.3
2023-04-02T14:04:23.014Z,79.3
2023-04-02T14:07:10.893Z,79.5
2023-04-02T14:09:58.776Z,80.4
2023-04-02T14:12:46.457Z,79
2023-04-02T14:15:34.807Z,79.1
2023-04-02T14:18:22.794Z,79.4
2023-04-02T14:21:10.701Z,82.4
2023-04-02T14:23:58.461Z,83.7
2023-04-02T14:26:46.192Z,83.1
2023-04-02T14:29:33.932Z,81.2
2023-04-02T14:32:21.983Z,79.4
2023-04-02T14:35:09.692Z,74.1
2023-04-02T14:37:57.726Z,71.4
2023-04-02T14:40:45.426Z,71.2
2023-04-02T14:43:33.367Z,70.2
2023-04-02T14:46:21.239Z,71.2
2023-04-02T14:49:09.121Z,70.4
2023-04-02T14:51:56.798Z,73.2
2023-04-02T14:54:44.712Z,70.8
2023-04-02T14:57:32.790Z,69.5
2023-04-02T15:00:20.877Z,69.7
2023-04-02T15:03:09.170Z,71
2023-04-02T15:05:57.149Z,70.5
2023-04-02T15:08:55.399Z,70.5
2023-04-02T15:11:46.777Z,70.1
2023-04-02T15:14:34.530Z,68.7
2023-04-02T15:17:22.504Z,69
2023-04-02T15:20:10.408Z,69.8
2023-04-02T15:22:58.213Z,73.1
2023-04-02T15:25:45.971Z,72.1
2023-04-02T15:28:33.836Z,70.4
2023-04-02T15:31:21.782Z,67
2023-04-02T15:34:09.685Z,67.8
2023-04-02T15:36:57.408Z,68.4
2023-04-02T15:39:45.296Z,67.5
2023-04-02T15:42:33.047Z,68.4
2023-04-02T15:45:21.085Z,69.6
2023-04-02T15:48:09.017Z,68.5
2023-04-02T15:50:56.882Z,65.5
2023-04-02T15:53:44.668Z,66.9
2023-04-02T15:56:32.502Z,64
2023-04-02T15:59:20.213Z,61.3
2023-04-02T16:02:08.298Z,61.1
2023-04-02T16:04:56.160Z,61
2023-04-02T16:07:43.967Z,60
2023-04-02T16:10:43.166Z,60
2023-04-02T16:13:31.244Z,63.1
2023-04-02T16:16:19.072Z,62.3
2023-04-02T16:19:17.266Z,61.4
2023-04-02T16:22:05.130Z,61.2
2023-04-02T16:24:52.971Z,59.2
2023-04-02T16:27:40.809Z,59.3
2023-04-02T16:30:28.591Z,57.1
2023-04-02T16:33:16.395Z,59.3
2023-04-02T16:36:11.922Z,60
2023-04-02T16:38:59.646Z,58.5
2023-04-02T16:41:47.566Z,58.7
2023-04-02T16:44:35.353Z,57.3
2023-04-02T16:47:23.251Z,57.1
2023-04-02T16:50:11.104Z,57.1
2023-04-02T16:52:59.066Z,57.9
2023-04-02T16:55:46.767Z,59.5
2023-04-02T16:58:34.558Z,59.2
2023-04-02T17:01:22.463Z,59.9
2023-04-02T17:04:10.685Z,60
2023-04-02T17:06:58.414Z,60.2
2023-04-02T17:09:46.421Z,61.3
2023-04-02T17:12:34.209Z,62.1
2023-04-02T17:15:28.792Z,62.8
2023-04-02T17:18:16.866Z,63.7
2023-04-02T17:21:05.075Z,64.3
2023-04-02T17:23:56.849Z,64.6
2023-04-02T17:26:44.848Z,64.9
2023-04-02T17:29:32.586Z,65
2023-04-02T17:32:20.698Z,65.2
2023-04-02T17:35:08.329Z,65.2
2023-04-02T17:37:56.378Z,65.5
2023-04-02T17:40:44.228Z,65.6
2023-04-02T17:43:32.370Z,65.8
2023-04-02T17:46:20.783Z,65.8
2023-04-02T17:49:08.945Z,65.8
2023-04-02T17:51:56.718Z,66
2023-04-02T17:54:44.603Z,66.3
2023-04-02T17:57:32.773Z,66.5
2023-04-02T18:00:20.951Z,66.8
2023-04-02T18:03:09.289Z,67
2023-04-02T18:05:57.426Z,67.3
2023-04-02T18:08:45.311Z,67.5
2023-04-02T18:11:33.249Z,67.6
2023-04-02T18:14:21.145Z,67.8
2023-04-02T18:17:09.300Z,68.1
2023-04-02T18:19:59.637Z,68.3
2023-04-02T18:22:47.352Z,68.5
2023-04-02T18:25:35.220Z,68.7
2023-04-02T18:28:23.070Z,69
2023-04-02T18:31:11.091Z,69.1
2023-04-02T18:33:59.166Z,69.3
2023-04-02T18:36:46.949Z,69.5
2023-04-02T18:39:34.867Z,69.6
2023-04-02T18:42:22.808Z,69.7
2023-04-02T18:45:10.701Z,69.8
2023-04-02T18:47:58.690Z,70
2023-04-02T18:50:46.924Z,70.2
2023-04-02T18:53:34.806Z,70.2
2023-04-02T18:56:22.745Z,70.5
2023-04-02T18:59:10.571Z,70.6
2023-04-02T19:01:58.455Z,70.8
2023-04-02T19:04:46.241Z,70.9
2023-04-02T19:07:34.419Z,71.1
2023-04-02T19:10:22.223Z,71.2
2023-04-02T19:13:10.179Z,71.3
2023-04-02T19:15:58.204Z,71.5
2023-04-02T19:18:46.130Z,71.7
2023-04-02T19:21:34.018Z,71.8
2023-04-02T19:24:21.933Z,71.9
2023-04-02T19:27:09.843Z,72
2023-04-02T19:29:57.838Z,72.2
2023-04-02T19:32:45.882Z,72.5
2023-04-02T19:35:34.039Z,72.5
2023-04-02T19:38:22.064Z,72.7
2023-04-02T19:41:10.076Z,73
2023-04-02T19:43:57.972Z,73.2
2023-04-02T19:46:46.064Z,73.4
2023-04-02T19:49:33.908Z,73.6
2023-04-02T19:52:21.881Z,73.8
2023-04-02T19:55:09.667Z,74
2023-04-02T19:58:19.083Z,74
2023-04-02T20:01:07.866Z,74
2023-04-02T20:03:56.038Z,74.1
2023-04-02T20:06:43.890Z,74.3
2023-04-02T20:09:32.183Z,74.4
2023-04-02T20:12:20.019Z,74.5
2023-04-02T20:15:07.979Z,74.6
2023-04-02T20:17:55.988Z,74.7
2023-04-02T20:20:43.832Z,75
2023-04-02T20:23:31.511Z,75
2023-04-02T20:26:19.387Z,75.3
2023-04-02T20:29:07.131Z,75.3
2023-04-02T20:31:55.203Z,75.6
2023-04-02T20:34:43.519Z,75.8
2023-04-02T20:37:31.355Z,76
2023-04-02T20:40:19.132Z,76.1
2023-04-02T20:43:07.127Z,76.3
2023-04-02T20:45:55.285Z,76.3
2023-04-02T20:48:43.435Z,76.5
2023-04-02T20:51:31.193Z,76.6
2023-04-02T20:54:19.130Z,76.8
2023-04-02T20:57:06.790Z,77
2023-04-02T20:59:54.785Z,77.1
2023-04-02T21:02:42.504Z,77.5
2023-04-02T21:05:30.608Z,77.6
2023-04-02T21:08:18.502Z,78.1
2023-04-02T21:11:06.699Z,78.2
2023-04-02T21:13:54.537Z,78.2
2023-04-02T21:16:42.620Z,78.4
2023-04-02T21:19:30.279Z,78.6
2023-04-02T21:22:18.314Z,78.9
2023-04-02T21:25:06.078Z,79.1
2023-04-02T21:27:54.005Z,79.5
2023-04-02T21:30:41.890Z,79.6
2023-04-02T21:33:29.771Z,79.6
2023-04-02T21:36:17.720Z,79.6
2023-04-02T21:39:05.640Z,79.8
2023-04-02T21:41:53.617Z,79.9
2023-04-02T21:44:41.502Z,80.1
2023-04-02T21:47:29.657Z,80.3
2023-04-02T21:50:17.459Z,80.3
2023-04-02T21:53:05.202Z,80.4
2023-04-02T21:55:53.190Z,80.4
2023-04-02T21:58:40.914Z,80.6
2023-04-02T22:01:28.911Z,81
2023-04-02T22:04:17.064Z,81
2023-04-02T22:07:04.893Z,81.3
2023-04-02T22:09:52.896Z,81.5
2023-04-02T22:12:40.839Z,81.4
2023-04-02T22:15:28.730Z,81.6
2023-04-02T22:18:16.586Z,81.6
2023-04-02T22:21:04.517Z,81.6
2023-04-02T22:23:52.223Z,81.8
2023-04-02T22:26:40.112Z,82.1
2023-04-02T22:29:28.076Z,82.2
2023-04-02T22:32:15.858Z,82.1
2023-04-02T22:35:03.770Z,82.1
2023-04-02T22:37:51.496Z,82
2023-04-02T22:40:39.227Z,82
2023-04-02T22:43:27.031Z,82.1
2023-04-02T22:46:15.084Z,82.3
2023-04-02T22:49:02.893Z,82.4
2023-04-02T22:51:50.717Z,82.4
2023-04-02T22:54:38.454Z,82.5
2023-04-02T22:57:26.517Z,82.7
2023-04-02T23:00:14.218Z,83
2023-04-02T23:03:02.260Z,83.1
2023-04-02T23:05:49.975Z,83.2
2023-04-02T23:08:37.928Z,83.3
2023-04-02T23:11:25.688Z,83.3
2023-04-02T23:14:13.502Z,83.4
2023-04-02T23:17:01.588Z,83.5
2023-04-02T23:19:49.548Z,83.6
2023-04-02T23:22:37.153Z,83.9
2023-04-02T23:25:25.149Z,84
2023-04-02T23:28:12.819Z,84.1
2023-04-02T23:31:00.677Z,84.2
2023-04-02T23:33:48.413Z,84.4
2023-04-02T23:36:36.404Z,84.9
2023-04-02T23:39:24.310Z,85.1
2023-04-02T23:42:12.093Z,85
2023-04-02T23:44:59.732Z,85
2023-04-02T23:47:47.678Z,85.2
2023-04-02T23:50:35.916Z,85.3
2023-04-02T23:53:24.155Z,85.3
2023-04-02T23:56:11.882Z,85.8
2023-04-02T23:58:59.717Z,86.1
